Phoenix, Arizona
Traffic Map
Current Weather Conditions
Phoenix, Arizona
Overcast Moderate Rain
Overcast
54°
Feels Like: 54°
Wind Chill: 54° Ceiling: 3600
Heat Index: 54° Visibility: 2.5mi
Dew Point: 51° Wind: 3mph
Humidity: 90% Direction: 310° (NW)
Pressure: 29.87in Gusts: 0mph
Raw Report DataKPHX 281421Z 31003KT 2 1/2SM RA BR FEW008 BKN036 OVC055 12/11 A2987 RMK AO2 RAE1355B14 P0002 T01220106
Traffic Incident Summary
Active as of:
Severity:
Category:
InformationThere was an issue retrieving the traffic information for this location. Please try a different location or try again shortly.
Advertisements
Track Severe Weather on mobile